Time;durP1;ratioP1;P1;durP2;ratioP2;P2;SDS_P1;SDS_P2;PMS_P1;PMS_P2;Temp;Humidity;BMP_temperature;BMP_pressure;BME280_temperature;BME280_humidity;BME280_pressure;Samples;Min_cycle;Max_cycle;Signal;HPM_P1;HPM_P2
2022/12/11 00:01:10;;;;;;;43.05;23.90;;;-0.80;99.90;;;;;;4994181;28;20033;-47
2022/12/11 00:03:35;;;;;;;40.70;23.13;;;-0.80;99.90;;;;;;4993543;28;20302;-46
2022/12/11 00:06:07;;;;;;;42.97;23.73;;;-0.80;99.90;;;;;;4994417;28;20402;-46
2022/12/11 00:08:33;;;;;;;44.45;25.40;;;-0.70;99.90;;;;;;4993086;28;20023;-45
2022/12/11 00:10:59;;;;;;;59.05;35.47;;;-0.70;99.90;;;;;;4994309;28;20050;-46
2022/12/11 00:13:24;;;;;;;62.30;31.92;;;-0.70;99.90;;;;;;4993321;28;20398;-49
2022/12/11 00:15:50;;;;;;;40.58;24.80;;;-0.60;99.90;;;;;;4993707;28;20109;-47
2022/12/11 00:18:15;;;;;;;38.75;25.20;;;-0.60;99.90;;;;;;4994748;23;20506;-50
2022/12/11 00:20:41;;;;;;;43.60;23.48;;;-0.50;99.90;;;;;;4974823;28;20049;-54
2022/12/11 00:23:06;;;;;;;42.58;23.88;;;-0.60;99.90;;;;;;4973610;28;20475;-57
2022/12/11 00:25:32;;;;;;;40.72;23.73;;;-0.60;99.90;;;;;;4973511;28;20225;-54
2022/12/11 00:27:58;;;;;;;45.72;23.85;;;-0.70;99.90;;;;;;4969918;28;20027;-53
2022/12/11 00:30:23;;;;;;;41.05;25.27;;;-0.70;99.90;;;;;;4970027;28;20484;-50
2022/12/11 00:32:51;;;;;;;42.72;24.90;;;-0.70;99.90;;;;;;4954320;28;20122;-50
2022/12/11 00:35:16;;;;;;;41.13;25.65;;;-0.60;99.90;;;;;;4969571;28;20039;-49
2022/12/11 00:37:42;;;;;;;39.17;24.77;;;-0.60;99.90;;;;;;4954696;29;20049;-51
2022/12/11 00:40:08;;;;;;;42.72;24.77;;;-0.60;99.90;;;;;;4969891;28;20070;-55
2022/12/11 00:42:33;;;;;;;47.60;25.40;;;-0.60;99.90;;;;;;4954088;29;20023;-54
2022/12/11 00:44:59;;;;;;;50.10;27.35;;;-0.60;99.90;;;;;;4954576;28;20034;-51
2022/12/11 00:47:24;;;;;;;87.55;49.10;;;-0.50;99.90;;;;;;4968598;28;20051;-56
2022/12/11 00:49:50;;;;;;;183.18;84.05;;;-0.60;99.90;;;;;;4954573;29;20126;-52
2022/12/11 00:52:16;;;;;;;47.60;26.40;;;-0.60;99.90;;;;;;4954005;29;20038;-53
2022/12/11 00:54:42;;;;;;;43.05;24.00;;;-0.60;99.90;;;;;;4955069;28;20348;-53
2022/12/11 00:57:07;;;;;;;51.25;25.05;;;-0.60;99.90;;;;;;4954472;28;20027;-51
2022/12/11 00:59:33;;;;;;;43.05;23.98;;;-0.60;99.90;;;;;;4954375;29;20460;-56
2022/12/11 01:01:58;;;;;;;39.10;22.92;;;-0.70;99.90;;;;;;4953566;29;20142;-55
2022/12/11 01:04:24;;;;;;;42.10;24.25;;;-0.70;99.90;;;;;;4968702;28;20100;-55
2022/12/11 01:06:49;;;;;;;43.35;24.55;;;-0.70;99.90;;;;;;4953843;28;20081;-54
2022/12/11 01:11:59;;;;;;;45.85;25.00;;;-0.50;99.90;;;;;;4953355;29;20082;-56
2022/12/11 01:14:25;;;;;;;46.80;25.27;;;-0.30;99.90;;;;;;4953927;29;20106;-59
2022/12/11 01:16:51;;;;;;;40.45;24.45;;;-0.30;99.90;;;;;;4954015;28;20488;-55
2022/12/11 01:19:16;;;;;;;41.35;25.83;;;-0.30;99.90;;;;;;4953889;29;20143;-54
2022/12/11 01:21:42;;;;;;;40.53;25.65;;;-0.40;99.90;;;;;;4952572;29;20035;-52
2022/12/11 01:24:07;;;;;;;40.78;24.67;;;-0.40;99.90;;;;;;4953049;29;20527;-58
2022/12/11 01:26:33;;;;;;;44.53;25.55;;;-0.50;99.90;;;;;;4953850;29;20019;-52
2022/12/11 01:29:00;;;;;;;47.78;25.45;;;-0.60;99.90;;;;;;4953732;28;20110;-52
2022/12/11 01:31:26;;;;;;;48.67;24.83;;;-0.60;99.90;;;;;;4968479;28;20058;-51
2022/12/11 01:33:53;;;;;;;41.45;24.40;;;-0.50;99.90;;;;;;4954302;28;20059;-54
2022/12/11 01:36:21;;;;;;;45.67;26.10;;;-0.60;99.90;;;;;;4954806;29;20427;-56
2022/12/11 01:38:47;;;;;;;47.75;25.58;;;-0.50;99.90;;;;;;4969699;28;20118;-57
2022/12/11 01:41:14;;;;;;;45.63;24.58;;;-0.50;99.90;;;;;;4954867;28;20023;-55
2022/12/11 01:43:56;;;;;;;43.88;26.67;;;-0.40;99.90;;;;;;4954039;28;20031;-55
2022/12/11 01:46:22;;;;;;;46.25;25.08;;;-0.40;99.90;;;;;;4953178;28;20055;-56
2022/12/11 01:48:47;;;;;;;46.63;23.88;;;-0.50;99.90;;;;;;4969354;28;20095;-58
2022/12/11 01:51:13;;;;;;;42.22;25.75;;;-0.60;99.90;;;;;;4955181;29;20500;-54
2022/12/11 01:53:48;;;;;;;45.72;24.52;;;-0.60;99.90;;;;;;4953896;29;20480;-57
2022/12/11 01:56:13;;;;;;;48.97;26.33;;;-0.50;99.90;;;;;;4954207;29;20094;-58
2022/12/11 01:58:46;;;;;;;42.38;25.10;;;-0.50;99.90;;;;;;4953950;28;20443;-51
2022/12/11 02:01:17;;;;;;;40.40;24.05;;;-0.50;99.90;;;;;;4968583;28;20028;-55
2022/12/11 02:03:42;;;;;;;47.20;24.95;;;-0.30;99.90;;;;;;4953078;28;20042;-50
2022/12/11 02:06:37;;;;;;;46.33;24.02;;;-0.20;99.90;;;;;;4954020;29;20027;-54
2022/12/11 02:09:10;;;;;;;40.03;23.92;;;-0.20;99.90;;;;;;4952169;28;20028;-52
2022/12/11 02:11:54;;;;;;;45.70;25.80;;;-0.30;99.90;;;;;;4953641;29;20027;-50
2022/12/11 02:14:39;;;;;;;45.10;25.17;;;-0.20;99.90;;;;;;4968283;28;20027;-53
2022/12/11 02:17:15;;;;;;;44.13;25.92;;;-0.10;99.90;;;;;;4953497;29;20107;-55
2022/12/11 02:20:28;;;;;;;39.60;24.15;;;-0.20;99.90;;;;;;4953661;28;20036;-54
2022/12/11 02:23:12;;;;;;;46.83;24.52;;;-0.20;99.90;;;;;;4893428;29;20033;-51
2022/12/11 02:25:59;;;;;;;45.53;28.02;;;-0.30;99.90;;;;;;4948960;28;20095;-54
2022/12/11 02:28:30;;;;;;;47.78;25.88;;;-0.40;99.90;;;;;;4968258;28;20066;-55
2022/12/11 02:31:22;;;;;;;43.83;26.20;;;-0.40;99.90;;;;;;4953390;28;20110;-54
2022/12/11 02:34:11;;;;;;;42.10;24.48;;;-0.50;99.90;;;;;;4949834;28;20047;-55
2022/12/11 02:36:40;;;;;;;47.97;26.05;;;-0.50;99.90;;;;;;4953547;29;20028;-51
2022/12/11 02:39:11;;;;;;;43.28;25.23;;;-0.40;99.90;;;;;;4953433;29;20042;-52
2022/12/11 02:41:41;;;;;;;42.50;24.38;;;-0.30;99.90;;;;;;4953457;28;20098;-53
2022/12/11 02:44:11;;;;;;;45.08;26.17;;;-0.20;99.90;;;;;;4952727;29;20027;-51
2022/12/11 02:46:37;;;;;;;48.08;26.17;;;-0.10;99.90;;;;;;4953365;28;20031;-52
2022/12/11 02:49:05;;;;;;;43.03;25.73;;;0.10;99.90;;;;;;4953835;29;20043;-55
2022/12/11 02:51:36;;;;;;;41.83;25.35;;;0.10;99.90;;;;;;4953412;28;20047;-51
2022/12/11 02:54:06;;;;;;;47.20;28.23;;;0.20;99.90;;;;;;4952494;29;20023;-52
2022/12/11 02:56:39;;;;;;;47.47;27.27;;;0.20;99.90;;;;;;4952753;29;20403;-53
2022/12/11 02:59:14;;;;;;;50.40;28.50;;;0.10;99.90;;;;;;4968024;28;20499;-56
2022/12/11 03:01:40;;;;;;;49.45;26.67;;;0.10;99.90;;;;;;4952844;29;20110;-57
2022/12/11 03:04:06;;;;;;;45.85;27.35;;;0.00;99.90;;;;;;4952262;29;20077;-50
2022/12/11 03:06:36;;;;;;;48.70;26.42;;;-0.10;99.90;;;;;;4967837;28;20027;-50
2022/12/11 03:09:03;;;;;;;47.55;26.17;;;-0.20;99.90;;;;;;4951879;28;20034;-52
2022/12/11 03:11:28;;;;;;;47.33;27.90;;;-0.30;99.90;;;;;;4956310;29;20027;-51
2022/12/11 03:13:54;;;;;;;48.25;28.42;;;-0.30;99.90;;;;;;4955666;29;20058;-50
2022/12/11 03:16:32;;;;;;;52.05;27.67;;;-0.30;99.90;;;;;;4956111;29;20439;-56
2022/12/11 03:19:09;;;;;;;51.10;27.45;;;-0.30;99.90;;;;;;4956149;28;20105;-53
2022/12/11 03:21:51;;;;;;;46.22;26.40;;;-0.30;99.90;;;;;;4956346;29;20034;-56
2022/12/11 03:24:33;;;;;;;52.72;27.20;;;-0.20;99.90;;;;;;4955866;29;20031;-56
2022/12/11 03:27:05;;;;;;;46.08;27.48;;;-0.20;99.90;;;;;;4955732;28;20028;-56
2022/12/11 03:29:36;;;;;;;47.35;27.67;;;-0.10;99.90;;;;;;4956052;29;20480;-55
2022/12/11 03:32:14;;;;;;;51.03;29.20;;;-0.10;99.90;;;;;;4955138;28;20082;-56
2022/12/11 03:34:48;;;;;;;47.28;28.02;;;-0.20;99.90;;;;;;4955882;28;20031;-53
2022/12/11 03:37:15;;;;;;;52.65;29.05;;;-0.20;99.90;;;;;;4955647;29;20054;-53
2022/12/11 03:39:46;;;;;;;46.30;28.80;;;-0.30;99.90;;;;;;4955693;28;20023;-56
2022/12/11 03:42:13;;;;;;;46.72;27.75;;;-0.30;99.90;;;;;;4955104;28;20027;-54
2022/12/11 03:44:41;;;;;;;44.67;27.15;;;-0.20;99.90;;;;;;4955737;28;20385;-55
2022/12/11 03:47:07;;;;;;;51.65;30.23;;;-0.30;99.90;;;;;;4955372;29;20110;-51
2022/12/11 03:49:37;;;;;;;51.58;29.58;;;-0.10;99.90;;;;;;4955608;28;20027;-55
2022/12/11 03:52:05;;;;;;;51.25;29.55;;;-0.10;99.90;;;;;;4954515;28;20140;-55
2022/12/11 03:54:33;;;;;;;48.83;28.38;;;0.00;99.90;;;;;;4970344;28;20090;-56
2022/12/11 03:57:00;;;;;;;51.22;30.60;;;-0.10;99.90;;;;;;4970007;28;20032;-54
2022/12/11 03:59:26;;;;;;;52.13;30.13;;;0.00;99.90;;;;;;4955488;28;20027;-55
2022/12/11 04:01:51;;;;;;;54.30;31.25;;;0.20;99.90;;;;;;4954705;29;20535;-51
2022/12/11 04:04:17;;;;;;;57.55;30.83;;;0.10;99.90;;;;;;4955121;28;20031;-51
2022/12/11 04:06:43;;;;;;;57.97;32.25;;;0.10;99.90;;;;;;4970117;28;20110;-59
2022/12/11 04:09:08;;;;;;;54.75;30.55;;;0.10;99.90;;;;;;4953872;29;20023;-55
2022/12/11 04:11:34;;;;;;;56.17;31.27;;;0.20;99.90;;;;;;4955167;28;20098;-52
2022/12/11 04:16:51;;;;;;;51.95;30.35;;;0.10;99.90;;;;;;4954885;28;20077;-56
2022/12/11 04:24:48;;;;;;;49.22;30.33;;;0.20;99.90;;;;;;4955106;28;20074;-55
2022/12/11 04:27:47;;;;;;;53.08;28.38;;;0.10;99.90;;;;;;4954812;28;20028;-57
2022/12/11 04:29:59;;;;;;;46.35;27.00;;;0.00;99.90;;;;;;4954935;28;20032;-57
2022/12/11 04:32:24;;;;;;;51.90;28.33;;;0.00;99.90;;;;;;4954200;29;20036;-54
2022/12/11 04:34:50;;;;;;;47.50;27.50;;;0.10;99.90;;;;;;4954886;29;20027;-51
2022/12/11 04:37:15;;;;;;;41.80;26.40;;;0.10;99.90;;;;;;4954664;28;20423;-54
2022/12/11 04:39:41;;;;;;;41.00;26.30;;;0.10;99.90;;;;;;4954684;29;20035;-51
2022/12/11 04:42:06;;;;;;;44.92;26.60;;;0.10;99.90;;;;;;4954082;29;20039;-51
2022/12/11 04:44:32;;;;;;;46.55;26.13;;;0.10;99.90;;;;;;4954601;29;20058;-51
2022/12/11 04:46:58;;;;;;;46.28;25.67;;;0.20;99.90;;;;;;4954519;28;20086;-50
2022/12/11 04:49:24;;;;;;;41.55;25.55;;;0.20;99.90;;;;;;4969368;28;20067;-54
2022/12/11 04:51:49;;;;;;;45.30;25.42;;;0.00;99.90;;;;;;4954132;29;20027;-53
2022/12/11 04:54:15;;;;;;;46.92;25.85;;;0.00;99.90;;;;;;4954039;28;20098;-50
2022/12/11 04:56:40;;;;;;;41.95;25.40;;;-0.10;99.90;;;;;;4954240;28;20109;-55
2022/12/11 04:59:05;;;;;;;46.22;25.77;;;-0.10;99.90;;;;;;4954468;29;20067;-54
2022/12/11 05:01:31;;;;;;;44.90;26.38;;;-0.20;99.90;;;;;;4954264;29;20325;-54
2022/12/11 05:03:58;;;;;;;47.08;25.83;;;-0.30;99.90;;;;;;4953613;28;20027;-54
2022/12/11 05:06:24;;;;;;;48.13;27.95;;;-0.30;99.90;;;;;;4954064;29;20480;-53
2022/12/11 05:08:50;;;;;;;53.60;28.85;;;-0.40;99.90;;;;;;4952417;28;20082;-54
2022/12/11 05:11:16;;;;;;;47.72;29.70;;;-0.40;99.90;;;;;;4954142;29;20031;-53
2022/12/11 05:13:42;;;;;;;53.63;29.50;;;-0.40;99.90;;;;;;4953568;28;20027;-53
2022/12/11 05:16:10;;;;;;;47.97;27.83;;;-0.40;99.90;;;;;;4954347;29;20090;-53
2022/12/11 05:18:36;;;;;;;46.15;28.50;;;-0.40;99.90;;;;;;4968593;28;20417;-56
2022/12/11 05:21:09;;;;;;;51.22;28.55;;;-0.40;99.90;;;;;;4954107;28;20110;-54
2022/12/11 05:23:34;;;;;;;44.30;26.63;;;-0.40;99.90;;;;;;4953107;29;20035;-53
2022/12/11 05:26:03;;;;;;;47.38;26.50;;;-0.40;99.90;;;;;;4953990;28;20082;-54
2022/12/11 05:28:30;;;;;;;50.80;28.88;;;-0.30;99.90;;;;;;4968587;28;20015;-55
2022/12/11 05:31:03;;;;;;;42.47;25.75;;;-0.20;99.90;;;;;;4954542;29;20144;-52
2022/12/11 05:33:29;;;;;;;43.55;26.05;;;-0.20;99.90;;;;;;4967722;28;20027;-55
2022/12/11 05:35:55;;;;;;;43.78;25.35;;;-0.10;99.90;;;;;;4968724;28;20121;-56
2022/12/11 05:38:21;;;;;;;42.72;25.77;;;0.00;99.90;;;;;;4953603;29;20151;-54
2022/12/11 05:41:01;;;;;;;40.92;25.60;;;0.00;99.90;;;;;;4953934;29;20470;-55
2022/12/11 05:43:28;;;;;;;44.70;27.33;;;0.00;99.90;;;;;;4952939;29;20023;-55
2022/12/11 05:45:54;;;;;;;45.45;25.25;;;0.00;99.90;;;;;;4953887;29;20038;-54
2022/12/11 05:48:20;;;;;;;42.67;26.67;;;0.00;99.90;;;;;;4953625;28;20106;-52
2022/12/11 05:50:56;;;;;;;47.95;26.67;;;0.00;99.90;;;;;;4954057;29;20163;-57
2022/12/11 05:53:22;;;;;;;45.42;26.23;;;0.00;99.90;;;;;;4952914;28;20391;-54
2022/12/11 05:55:47;;;;;;;43.45;27.10;;;-0.10;99.90;;;;;;4953730;29;20027;-53
2022/12/11 05:58:13;;;;;;;40.15;24.90;;;0.00;99.90;;;;;;4953318;29;20491;-53
2022/12/11 06:00:41;;;;;;;44.05;26.20;;;-0.10;99.90;;;;;;4968410;28;20027;-54
2022/12/11 06:03:07;;;;;;;42.88;25.55;;;0.00;99.90;;;;;;4952709;28;20031;-51
2022/12/11 06:05:37;;;;;;;43.03;26.52;;;-0.10;99.90;;;;;;4952916;28;20040;-51
2022/12/11 06:08:03;;;;;;;50.65;27.85;;;0.00;99.90;;;;;;4953086;29;20080;-51
2022/12/11 06:10:28;;;;;;;44.75;24.25;;;-0.10;99.90;;;;;;4950169;28;20035;-52
2022/12/11 06:12:54;;;;;;;44.33;26.70;;;-0.10;99.90;;;;;;4952571;29;20082;-57
2022/12/11 06:15:19;;;;;;;43.63;24.30;;;0.10;99.90;;;;;;4953415;29;20089;-54
2022/12/11 06:17:45;;;;;;;39.80;24.73;;;0.10;99.90;;;;;;4981806;23;20074;-48
2022/12/11 06:20:11;;;;;;;43.13;25.55;;;0.10;99.90;;;;;;4992077;28;20034;-51
2022/12/11 06:22:36;;;;;;;41.72;24.95;;;0.10;99.90;;;;;;4991175;28;20203;-56
2022/12/11 06:25:02;;;;;;;53.80;27.95;;;0.00;99.90;;;;;;4990574;28;20026;-52
2022/12/11 06:27:27;;;;;;;43.67;24.92;;;-0.10;99.90;;;;;;4991812;28;20421;-50
2022/12/11 06:29:53;;;;;;;43.60;25.90;;;-0.10;99.90;;;;;;5006974;28;20037;-48
2022/12/11 06:32:18;;;;;;;44.80;26.15;;;-0.10;99.90;;;;;;5006011;28;20034;-52
2022/12/11 06:34:44;;;;;;;47.42;28.25;;;-0.10;99.90;;;;;;4991828;28;20030;-49
2022/12/11 06:37:10;;;;;;;52.72;28.55;;;-0.20;99.90;;;;;;4991759;28;20109;-51
2022/12/11 06:39:36;;;;;;;47.13;27.80;;;-0.10;99.90;;;;;;4991707;28;20057;-56
2022/12/11 06:42:01;;;;;;;43.30;27.90;;;-0.20;99.90;;;;;;4991086;28;20030;-50
2022/12/11 06:44:27;;;;;;;49.85;29.55;;;-0.20;99.90;;;;;;4991893;28;20034;-51
2022/12/11 06:46:52;;;;;;;52.13;29.02;;;-0.30;99.90;;;;;;4995492;28;20047;-49
2022/12/11 06:49:18;;;;;;;48.53;28.83;;;-0.30;99.90;;;;;;4995378;28;20554;-53
2022/12/11 06:51:43;;;;;;;54.60;30.83;;;-0.30;99.90;;;;;;4995610;28;20046;-50
2022/12/11 06:54:09;;;;;;;47.55;28.60;;;-0.20;99.90;;;;;;5009905;28;20026;-51
2022/12/11 06:56:35;;;;;;;48.95;29.55;;;-0.30;99.90;;;;;;4995534;28;20042;-48
2022/12/11 06:59:00;;;;;;;49.45;27.10;;;-0.30;99.90;;;;;;4995249;28;20082;-52
2022/12/11 07:01:27;;;;;;;43.45;25.48;;;-0.40;99.90;;;;;;4995446;28;20394;-45
2022/12/11 07:03:55;;;;;;;49.17;28.85;;;-0.40;99.90;;;;;;4995071;28;20027;-48
2022/12/11 07:06:21;;;;;;;50.28;28.35;;;-0.30;99.90;;;;;;4995401;28;20394;-53
2022/12/11 07:08:46;;;;;;;49.08;29.35;;;-0.40;99.90;;;;;;5009271;28;20045;-55
2022/12/11 07:11:14;;;;;;;55.70;33.13;;;-0.30;99.90;;;;;;4995747;28;20026;-53
2022/12/11 07:13:41;;;;;;;50.65;29.90;;;-0.40;99.90;;;;;;4994728;28;20113;-49
2022/12/11 07:16:09;;;;;;;54.15;30.33;;;-0.30;99.90;;;;;;4995785;28;20046;-49
2022/12/11 07:18:36;;;;;;;50.45;30.20;;;-0.30;99.90;;;;;;4994775;28;20192;-54
2022/12/11 07:21:02;;;;;;;47.60;30.00;;;-0.30;99.90;;;;;;4994995;28;20058;-51
2022/12/11 07:23:28;;;;;;;49.92;28.83;;;-0.20;99.90;;;;;;4993785;28;20529;-53
2022/12/11 07:25:54;;;;;;;47.63;29.48;;;-0.20;99.90;;;;;;4994875;28;20033;-55
2022/12/11 07:28:20;;;;;;;47.20;30.42;;;-0.20;99.90;;;;;;4994659;28;20037;-50
2022/12/11 07:30:46;;;;;;;49.05;29.15;;;-0.10;99.90;;;;;;4995130;28;20026;-49
2022/12/11 07:33:12;;;;;;;48.83;29.60;;;0.00;99.90;;;;;;4993867;28;20483;-54
2022/12/11 07:35:37;;;;;;;48.47;30.48;;;0.00;99.90;;;;;;4995094;28;20030;-51
2022/12/11 07:38:03;;;;;;;50.72;30.98;;;0.00;99.90;;;;;;4994309;28;20446;-53
2022/12/11 07:40:28;;;;;;;46.80;27.73;;;0.10;99.90;;;;;;4994781;28;20030;-47
2022/12/11 07:42:54;;;;;;;55.53;31.08;;;0.20;99.90;;;;;;4993953;28;20023;-52
2022/12/11 07:45:19;;;;;;;52.28;30.08;;;0.20;99.90;;;;;;4994481;28;20026;-51
2022/12/11 07:47:45;;;;;;;57.53;32.33;;;0.20;99.90;;;;;;4994858;28;20027;-55
2022/12/11 07:50:10;;;;;;;58.83;32.08;;;0.20;99.90;;;;;;4995198;28;20027;-54
2022/12/11 07:52:36;;;;;;;50.53;30.33;;;0.20;99.90;;;;;;4994561;28;20463;-57
2022/12/11 07:55:01;;;;;;;51.53;31.05;;;0.30;99.90;;;;;;4995223;28;20037;-57
2022/12/11 07:57:27;;;;;;;46.65;29.80;;;0.30;99.90;;;;;;4995091;28;20041;-57
2022/12/11 07:59:53;;;;;;;56.70;33.75;;;0.30;99.90;;;;;;4995144;28;20027;-49
2022/12/11 08:02:18;;;;;;;59.42;33.88;;;0.30;99.90;;;;;;4994607;28;20076;-55
2022/12/11 08:04:44;;;;;;;54.83;33.97;;;0.30;99.90;;;;;;4995126;28;20038;-57
2022/12/11 08:07:09;;;;;;;54.50;32.70;;;0.30;99.90;;;;;;5010615;28;20026;-56
2022/12/11 08:09:35;;;;;;;62.15;33.47;;;0.30;99.90;;;;;;5007757;28;20023;-48
2022/12/11 08:12:00;;;;;;;52.03;31.33;;;0.20;99.90;;;;;;4993493;28;20026;-54
2022/12/11 08:14:26;;;;;;;54.80;32.58;;;0.30;99.90;;;;;;5009107;28;20107;-52
2022/12/11 08:16:51;;;;;;;57.40;33.55;;;0.30;99.90;;;;;;4994495;28;20061;-52
2022/12/11 08:19:17;;;;;;;52.35;31.58;;;0.20;99.90;;;;;;4992404;28;20092;-50
2022/12/11 08:21:43;;;;;;;53.05;31.67;;;0.20;99.90;;;;;;4993843;28;20033;-50
2022/12/11 08:24:09;;;;;;;52.30;31.10;;;0.30;99.90;;;;;;4993013;28;20070;-52
2022/12/11 08:26:35;;;;;;;53.70;31.65;;;0.20;99.90;;;;;;4993781;28;20052;-53
2022/12/11 08:29:01;;;;;;;52.83;31.60;;;0.20;99.90;;;;;;4993632;28;20068;-52
2022/12/11 08:31:28;;;;;;;47.75;29.08;;;0.10;99.90;;;;;;4993694;28;20117;-47
2022/12/11 08:33:54;;;;;;;53.80;31.50;;;0.10;99.90;;;;;;5007926;28;20574;-50
2022/12/11 08:36:21;;;;;;;49.10;29.33;;;0.20;99.90;;;;;;5008492;28;20478;-55
2022/12/11 08:38:46;;;;;;;55.42;32.10;;;0.20;99.90;;;;;;4993420;28;20585;-51
2022/12/11 08:41:20;;;;;;;56.55;33.05;;;0.30;99.90;;;;;;4993557;28;20109;-51
2022/12/11 08:43:46;;;;;;;53.38;31.15;;;0.30;99.90;;;;;;4991477;28;20406;-52
2022/12/11 08:46:12;;;;;;;55.45;31.17;;;0.20;99.90;;;;;;5008511;28;20033;-55
2022/12/11 08:48:39;;;;;;;53.33;30.77;;;0.20;99.90;;;;;;4993349;28;20018;-55
2022/12/11 08:51:06;;;;;;;61.10;33.75;;;0.30;99.90;;;;;;4993263;28;20109;-45
2022/12/11 08:53:32;;;;;;;58.75;32.33;;;0.30;99.90;;;;;;5007637;28;20118;-53
2022/12/11 08:56:19;;;;;;;52.67;31.55;;;0.30;99.90;;;;;;5007062;28;20120;-54
2022/12/11 08:58:45;;;;;;;59.60;31.98;;;0.40;99.90;;;;;;4993349;28;20104;-53
2022/12/11 09:01:13;;;;;;;60.40;32.92;;;0.30;99.90;;;;;;4992965;28;20034;-53
2022/12/11 09:03:39;;;;;;;56.60;31.95;;;0.30;99.90;;;;;;4992480;28;20026;-53
2022/12/11 09:06:11;;;;;;;58.08;33.05;;;0.30;99.90;;;;;;5008059;28;20520;-51
2022/12/11 09:08:37;;;;;;;57.75;33.05;;;0.30;99.90;;;;;;4992987;28;20446;-52
2022/12/11 09:11:09;;;;;;;67.00;34.00;;;0.30;99.90;;;;;;4993036;28;20390;-53
2022/12/11 09:13:35;;;;;;;61.85;32.47;;;0.30;99.90;;;;;;4992264;28;20022;-48
2022/12/11 09:16:04;;;;;;;61.88;34.45;;;0.40;99.90;;;;;;4992860;28;20041;-51
2022/12/11 09:18:30;;;;;;;59.60;31.88;;;0.40;99.90;;;;;;4992917;28;20034;-52
2022/12/11 09:21:04;;;;;;;66.10;37.22;;;0.40;99.90;;;;;;4992649;28;20022;-53
2022/12/11 09:23:30;;;;;;;57.35;32.97;;;0.40;99.90;;;;;;4992459;28;20126;-53
2022/12/11 09:25:56;;;;;;;69.55;34.90;;;0.30;99.90;;;;;;4992771;28;20018;-57
2022/12/11 09:28:22;;;;;;;61.22;33.90;;;0.30;99.90;;;;;;4992644;28;20026;-52
2022/12/11 09:30:48;;;;;;;69.30;35.55;;;0.20;99.90;;;;;;4992933;28;20022;-48
2022/12/11 09:33:14;;;;;;;60.88;33.90;;;0.20;99.90;;;;;;4991925;28;20471;-55
2022/12/11 09:35:39;;;;;;;63.05;36.00;;;0.20;99.90;;;;;;4992484;28;20121;-51
2022/12/11 09:38:05;;;;;;;67.45;35.35;;;0.20;99.90;;;;;;4992669;28;20027;-55
2022/12/11 09:40:31;;;;;;;60.35;33.78;;;0.20;99.90;;;;;;5008497;28;20023;-47
2022/12/11 09:43:16;;;;;;;61.25;34.33;;;0.30;99.90;;;;;;4984089;28;20109;-54
2022/12/11 09:45:41;;;;;;;64.65;33.90;;;0.30;99.90;;;;;;4989088;28;20066;-53
2022/12/11 09:48:09;;;;;;;67.65;34.67;;;0.40;99.90;;;;;;5008513;28;20033;-56
2022/12/11 09:50:35;;;;;;;61.55;33.88;;;0.50;99.90;;;;;;4993939;28;20026;-51
2022/12/11 09:53:04;;;;;;;65.85;35.58;;;0.50;99.90;;;;;;5007989;28;20026;-51
2022/12/11 09:55:53;;;;;;;67.47;36.80;;;0.40;99.90;;;;;;5007339;28;20030;-51
2022/12/11 09:58:21;;;;;;;65.15;36.75;;;0.30;99.90;;;;;;4954895;28;20030;-51
2022/12/11 10:01:01;;;;;;;62.97;33.70;;;0.30;99.90;;;;;;4992277;28;20102;-52
2022/12/11 10:04:05;;;;;;;60.83;33.80;;;0.30;99.90;;;;;;4991300;28;20482;-53
2022/12/11 10:06:40;;;;;;;62.72;33.88;;;0.30;99.90;;;;;;4961028;28;20030;-50
2022/12/11 10:09:24;;;;;;;61.05;32.85;;;0.20;99.90;;;;;;4992071;28;20023;-52
2022/12/11 10:12:11;;;;;;;62.85;34.42;;;0.20;99.90;;;;;;4991664;28;20102;-54
2022/12/11 10:14:49;;;;;;;67.93;36.45;;;0.30;99.90;;;;;;5007305;28;20029;-50
2022/12/11 10:17:30;;;;;;;63.50;34.70;;;0.30;99.90;;;;;;4989487;28;20023;-51
2022/12/11 10:20:17;;;;;;;68.28;35.72;;;0.30;99.90;;;;;;4994485;28;20034;-54
2022/12/11 10:22:44;;;;;;;74.47;36.60;;;0.40;99.90;;;;;;4995315;28;20465;-56
2022/12/11 10:25:27;;;;;;;61.60;35.33;;;0.50;99.90;;;;;;4994517;28;20037;-51
2022/12/11 10:27:54;;;;;;;63.63;34.75;;;0.50;99.90;;;;;;4995847;28;20054;-45
2022/12/11 10:30:23;;;;;;;63.42;35.35;;;0.60;99.90;;;;;;4995892;28;20033;-51
2022/12/11 10:32:54;;;;;;;59.65;32.70;;;0.50;99.90;;;;;;4993723;28;20030;-51
2022/12/11 10:35:38;;;;;;;65.57;33.28;;;0.50;99.90;;;;;;4995842;28;20050;-52
2022/12/11 10:38:14;;;;;;;63.67;32.97;;;0.50;99.90;;;;;;4995852;28;20073;-46
2022/12/11 10:40:44;;;;;;;59.55;33.30;;;0.50;99.90;;;;;;4995698;28;20490;-53
2022/12/11 10:43:10;;;;;;;60.45;34.42;;;0.50;99.90;;;;;;4995129;28;20545;-53
2022/12/11 10:45:36;;;;;;;69.15;34.20;;;0.40;99.90;;;;;;4995615;28;20110;-53
2022/12/11 10:48:04;;;;;;;61.60;33.58;;;0.50;99.90;;;;;;4995514;28;20101;-52
2022/12/11 10:50:30;;;;;;;61.75;33.28;;;0.50;99.90;;;;;;4995333;28;20061;-50
2022/12/11 10:52:56;;;;;;;54.17;32.25;;;0.70;99.90;;;;;;4994936;28;20054;-53
2022/12/11 10:55:27;;;;;;;59.47;32.38;;;0.70;99.90;;;;;;4995610;28;20027;-54
2022/12/11 10:57:56;;;;;;;57.80;30.95;;;0.80;99.90;;;;;;4995484;28;20061;-47
2022/12/11 11:00:37;;;;;;;53.63;31.60;;;0.90;99.90;;;;;;4995403;28;20109;-53
2022/12/11 11:03:18;;;;;;;57.22;31.52;;;1.00;99.90;;;;;;4982308;28;20029;-56
2022/12/11 11:05:44;;;;;;;54.53;30.30;;;1.00;99.90;;;;;;4992156;28;20037;-47
2022/12/11 11:08:14;;;;;;;52.65;29.42;;;1.20;99.90;;;;;;4993157;28;20037;-55
2022/12/11 11:10:57;;;;;;;54.15;29.95;;;1.20;99.90;;;;;;4992680;28;20023;-54
2022/12/11 11:13:25;;;;;;;55.83;29.90;;;1.20;99.90;;;;;;4993959;28;20022;-63
2022/12/11 11:16:04;;;;;;;54.58;30.45;;;1.20;99.90;;;;;;4994034;28;20034;-64
2022/12/11 11:18:31;;;;;;;56.35;30.75;;;1.30;99.90;;;;;;5015779;28;20494;-62
2022/12/11 11:20:57;;;;;;;53.53;28.95;;;1.30;99.90;;;;;;4996377;28;20117;-53
2022/12/11 11:23:24;;;;;;;56.05;31.35;;;1.30;99.90;;;;;;4991642;28;20114;-52
2022/12/11 11:25:59;;;;;;;53.85;29.40;;;1.30;99.90;;;;;;4991652;28;20023;-47
2022/12/11 11:28:33;;;;;;;56.83;32.07;;;1.30;99.90;;;;;;4993322;28;20094;-48
2022/12/11 11:31:03;;;;;;;56.60;30.77;;;1.30;99.90;;;;;;4986893;28;20022;-49
2022/12/11 11:33:31;;;;;;;60.65;34.25;;;1.20;99.90;;;;;;4990243;28;20088;-49
2022/12/11 11:36:01;;;;;;;56.38;30.83;;;1.10;99.90;;;;;;4990946;28;20061;-51
2022/12/11 11:38:47;;;;;;;61.75;32.08;;;1.10;99.90;;;;;;5006862;28;20425;-50
2022/12/11 11:41:41;;;;;;;55.40;31.35;;;1.10;99.90;;;;;;4992056;28;20086;-49
2022/12/11 11:44:12;;;;;;;58.80;31.65;;;1.10;99.90;;;;;;4991794;28;20482;-47
2022/12/11 11:46:44;;;;;;;56.10;31.50;;;1.20;99.90;;;;;;4991632;28;20552;-50
2022/12/11 11:49:25;;;;;;;58.88;33.00;;;1.20;99.90;;;;;;4992464;28;20026;-53
2022/12/11 11:52:20;;;;;;;47.58;29.60;;;1.20;99.90;;;;;;5007839;28;20022;-52
2022/12/11 11:55:05;;;;;;;58.25;29.92;;;1.30;99.90;;;;;;4990067;28;20018;-50
2022/12/11 11:57:49;;;;;;;58.45;31.08;;;1.30;99.90;;;;;;4988084;28;20030;-49
2022/12/11 12:00:23;;;;;;;52.63;29.52;;;1.20;99.90;;;;;;4989641;28;20108;-60
2022/12/11 12:02:53;;;;;;;52.10;29.30;;;1.20;99.90;;;;;;4990100;28;20037;-63
2022/12/11 12:05:25;;;;;;;53.58;30.33;;;1.30;99.90;;;;;;4990950;28;20580;-67
2022/12/11 12:08:20;;;;;;;51.95;29.83;;;1.30;99.90;;;;;;4992318;28;20026;-67
2022/12/11 12:11:17;;;;;;;50.50;28.88;;;1.40;99.90;;;;;;5007220;28;20046;-67
2022/12/11 12:14:20;;;;;;;52.38;29.92;;;1.50;99.90;;;;;;4991408;28;20022;-64
2022/12/11 12:17:03;;;;;;;56.33;30.73;;;1.40;99.90;;;;;;5006568;28;20287;-62
2022/12/11 12:19:49;;;;;;;50.30;28.88;;;1.50;99.90;;;;;;5012178;23;20049;-60
2022/12/11 12:22:15;;;;;;;;;;;1.40;99.90;;;;;;4951672;28;20031;-58
2022/12/11 12:25:06;;;;;;;56.83;31.35;;;1.30;99.90;;;;;;4964998;28;20260;-59
2022/12/11 12:27:47;;;;;;;54.88;31.25;;;1.40;99.90;;;;;;4955616;28;20448;-60
2022/12/11 12:30:16;;;;;;;59.00;31.48;;;1.40;99.90;;;;;;4968197;28;20041;-61
2022/12/11 12:33:03;;;;;;;58.00;30.30;;;1.50;99.90;;;;;;4957295;28;20089;-60
2022/12/11 12:35:37;;;;;;;55.97;31.48;;;1.40;99.90;;;;;;4960109;28;20038;-62
2022/12/11 12:38:29;;;;;;;57.85;31.88;;;1.40;99.90;;;;;;4969997;28;20074;-55
2022/12/11 12:41:19;;;;;;;54.35;29.60;;;1.50;99.90;;;;;;4969812;28;20049;-56
2022/12/11 12:44:23;;;;;;;53.35;29.83;;;1.50;99.90;;;;;;4967676;28;20569;-50
2022/12/11 12:46:55;;;;;;;56.90;31.02;;;1.50;99.90;;;;;;4907418;29;20028;-55
2022/12/11 12:49:45;;;;;;;54.67;30.25;;;1.60;99.90;;;;;;4911433;29;20036;-59
2022/12/11 12:52:15;;;;;;;54.38;31.77;;;1.60;99.90;;;;;;4950514;28;20414;-52
2022/12/11 12:55:12;;;;;;;51.03;29.25;;;1.60;99.90;;;;;;4959535;28;20585;-57
2022/12/11 12:57:31;;;;;;;55.13;29.83;;;1.50;99.90;;;;;;4960711;28;20122;-63
2022/12/11 12:59:57;;;;;;;50.67;28.42;;;1.50;99.90;;;;;;4955558;28;20113;-60